Current Weather Conditions: station 44139

sailwx.info

Wind from 240 at 9 knots gusting 9

Wave height 1.2 meters (3 feet), 7 second period

Air temperature 10.0° C
Water temperature 9.5° C

Last reported at 2017-Jun-22 22:00 UTC.
Time now 2017-Jun-22 22:33 UTC

Location: N 44°12' W 057°06'.
View on Google Maps.

See reports from other nearby stations

  
Tides and Currents Weather Stations Pressure Air Temp Water Temp Dewpoint Dewpoint Depression Visibility Wind Speed Wind Dir Waves Ship Positions
date/time (UTC)wind fromknots sea level pressurealtimeterstation pressurevisibilityair tempwater tempwave heightnotes
2017-Jun-22 22:00 240 9 gusting 9 10.0 9.5 1.2
2017-Jun-22 21:00 250 9 gusting 11 9.5 9.6 1.1
2017-Jun-22 20:00 260 11 gusting 13 10.3 9.4 1.1
2017-Jun-22 19:00 230 7 gusting 9 11.1 9.3 1.1
2017-Jun-22 18:00 230 11 gusting 11 11.5 9.1 1.2
2017-Jun-22 17:00 200 11 gusting 13 12.3 8.8 1.2
2017-Jun-22 16:00 200 11 gusting 11 11.5 8.7 1.2
2017-Jun-22 15:00 200 11 gusting 13 11.9 8.6 1.3
2017-Jun-22 14:00 210 9 gusting 11 11.5 8.5 1.2
2017-Jun-22 13:00 200 9 gusting 11 10.8 8.5 1.3
2017-Jun-22 12:00 200 11 gusting 11 11.2 8.5 1.3
2017-Jun-22 11:00 190 9 gusting 11 11.3 8.5 1.3
2017-Jun-22 10:00 190 11 gusting 11 11.2 8.5 1.2
2017-Jun-22 09:00 190 9 gusting 11 11.1 8.6 1.2
2017-Jun-22 08:00 180 11 gusting 11 11.1 8.6 1.3
2017-Jun-22 07:00 180 9 gusting 11 11.4 8.6 1.4
2017-Jun-22 06:00 200 11 gusting 11 11.6 8.5 1.4
2017-Jun-22 05:00 200 13 gusting 15 12.1 8.5 1.6
2017-Jun-22 04:00 200 11 gusting 13 11.7 8.4 1.5
2017-Jun-22 03:00 190 11 gusting 11 11.5 8.5 1.5
2017-Jun-22 02:00 200 7 gusting 9 11.3 8.4 1.5
2017-Jun-22 01:00 200 7 gusting 9 11.3 8.4 1.5
2017-Jun-22 00:00 200 7 gusting 9 10.8 8.4 1.3
2017-Jun-21 23:00 210 7 gusting 9 10.6 8.4 1.4
2017-Jun-21 22:00 200 5 gusting 7 10.4 8.3 1.3
2017-Jun-21 21:00 220 7 gusting 7 10.5 8.3 1.2
2017-Jun-21 20:00 230 9 gusting 11 11.4 8.2 1.2
2017-Jun-21 19:00 220 7 gusting 9 11.0 8.2 1.3
2017-Jun-21 18:00 220 7 gusting 9 11.3 8.2 1.4
2017-Jun-21 17:00 220 7 gusting 9 11.3 8.3 1.2
2017-Jun-21 16:00 220 9 gusting 11 11.8 8.3 1.3
2017-Jun-21 15:00 210 9 gusting 9 11.8 8.3 1.4
2017-Jun-21 14:00 210 13 gusting 15 12.4 8.3 1.4
2017-Jun-21 13:00 210 15 gusting 17 13.2 8.4 1.5
2017-Jun-21 12:00 200 15 gusting 17 12.8 8.4 1.4
2017-Jun-21 11:00 210 13 gusting 15 12.6 8.4 1.3
2017-Jun-21 10:00 210 13 gusting 15 12.2 8.4 1.3
2017-Jun-21 09:00 200 15 gusting 17 13.1 8.4 1.4
2017-Jun-21 08:00 200 17 gusting 19 13.5 8.5 1.3
2017-Jun-21 07:00 200 15 gusting 17 13.0 8.6 1.3
2017-Jun-21 06:00 200 15 gusting 17 13.0 8.6 1.3
2017-Jun-21 05:00 200 13 gusting 15 12.7 8.7 1.3
2017-Jun-21 04:00 200 13 gusting 15 12.8 8.9 1.3
2017-Jun-21 03:00 190 13 gusting 15 12.8 8.7 1.3
2017-Jun-21 02:00 200 15 gusting 17 13.2 8.8 1.2
2017-Jun-21 01:00 190 15 gusting 15 12.8 8.9 1.2
2017-Jun-21 00:00 200 13 gusting 15 12.6 8.9 1.2
2017-Jun-20 23:00 200 13 gusting 15 13.1 8.9 1.2
2017-Jun-20 22:00 200 13 gusting 15 13.0 8.9 1.2